Terminal Aerodrome Forecast
Issued by NWS

Home | Current Version | Previous Version | Graphics & Text | Print | Product List | Glossary On
Versions: 1 2 3 4 5 6 7 8 9 10 11 12 13
000
FTUS43 KGRB 261700
TAFCWA
TAF
KCWA 261736Z 2618/2718 34006G15KT P6SM SCT030
      TEMPO 2618/2620 BKN028
     FM262300 30004KT P6SM SKC
     FM271400 26008KT P6SM SKC=

USA.gov is the U.S. government's official web portal to all federal, state and local government web resources and services.